createdAt,value
2022-10-24T00:01:15.953Z,95821.66
2022-10-24T00:03:43.128Z,95820.31
2022-10-24T00:06:11.819Z,95819.31
2022-10-24T00:08:39.029Z,95823.00
2022-10-24T00:11:20.170Z,95818.25
2022-10-24T00:13:47.168Z,95814.66
2022-10-24T00:16:14.270Z,95814.16
2022-10-24T00:18:41.285Z,95816.78
2022-10-24T00:21:08.673Z,95815.75
2022-10-24T00:23:35.983Z,95805.16
2022-10-24T00:26:04.283Z,95817.88
2022-10-24T00:28:35.857Z,95813.38
2022-10-24T00:31:05.046Z,95805.34
2022-10-24T00:33:31.929Z,95798.94
2022-10-24T00:35:59.017Z,95807.13
2022-10-24T00:38:25.800Z,95803.59
2022-10-24T00:40:52.679Z,95804.72
2022-10-24T00:43:25.111Z,95800.94
2022-10-24T00:45:59.535Z,95799.94
2022-10-24T00:48:34.567Z,95795.66
2022-10-24T00:51:08.380Z,95803.06
2022-10-24T00:53:41.863Z,95802.31
2022-10-24T00:56:09.179Z,95805.00
2022-10-24T00:58:37.617Z,95814.03
2022-10-24T01:01:06.209Z,95806.91
2022-10-24T01:03:33.155Z,95810.09
2022-10-24T01:06:34.132Z,95814.56
2022-10-24T01:09:21.513Z,95816.50
2022-10-24T01:11:51.160Z,95818.25
2022-10-24T01:14:32.756Z,95810.44
2022-10-24T01:17:22.786Z,95802.78
2022-10-24T01:20:10.007Z,95808.59
2022-10-24T01:22:39.848Z,95806.97
2022-10-24T01:25:15.520Z,95807.00
2022-10-24T01:27:42.322Z,95810.25
2022-10-24T01:30:12.925Z,95814.19
2022-10-24T01:32:57.355Z,95809.69
2022-10-24T01:35:28.300Z,95809.19
2022-10-24T01:38:01.189Z,95814.47
2022-10-24T01:40:50.860Z,95808.63
2022-10-24T01:43:23.387Z,95802.81
2022-10-24T01:46:00.721Z,95806.25
2022-10-24T01:48:29.735Z,95812.31
2022-10-24T01:50:58.571Z,95808.13
2022-10-24T01:53:26.292Z,95817.19
2022-10-24T01:55:54.425Z,95803.38
2022-10-24T01:58:21.159Z,95811.84
2022-10-24T02:00:50.561Z,95803.94
2022-10-24T02:03:22.524Z,95802.84
2022-10-24T02:05:53.765Z,95796.28
2022-10-24T02:08:27.857Z,95805.25
2022-10-24T02:11:00.266Z,95805.03
2022-10-24T02:13:39.363Z,95816.88
2022-10-24T02:16:06.770Z,95807.66
2022-10-24T02:18:34.832Z,95816.09
2022-10-24T02:21:15.442Z,95814.78
2022-10-24T02:23:51.034Z,95812.44
2022-10-24T02:27:01.405Z,95807.63
2022-10-24T02:29:47.179Z,95810.28
2022-10-24T02:32:19.300Z,95818.25
2022-10-24T02:34:48.026Z,95822.44
2022-10-24T02:37:18.066Z,95815.31
2022-10-24T02:39:47.445Z,95812.94
2022-10-24T02:42:16.250Z,95810.56
2022-10-24T02:44:47.087Z,95812.94
2022-10-24T02:47:15.150Z,95812.66
2022-10-24T02:49:43.267Z,95807.66
2022-10-24T02:52:10.176Z,95807.63
2022-10-24T02:54:36.976Z,95802.63
2022-10-24T02:57:04.735Z,95809.53
2022-10-24T02:59:31.759Z,95812.16
2022-10-24T03:01:58.644Z,95811.38
2022-10-24T03:04:25.408Z,95803.44
2022-10-24T03:06:53.242Z,95805.03
2022-10-24T03:09:20.073Z,95811.88
2022-10-24T03:11:46.892Z,95808.19
2022-10-24T03:14:13.729Z,95800.78
2022-10-24T03:16:40.531Z,95803.97
2022-10-24T03:19:07.294Z,95800.50
2022-10-24T03:21:33.992Z,95808.19
2022-10-24T03:24:00.843Z,95811.34
2022-10-24T03:26:27.754Z,95795.50
2022-10-24T03:28:54.477Z,95798.38
2022-10-24T03:31:21.200Z,95806.06
2022-10-24T03:33:47.912Z,95801.34
2022-10-24T03:36:14.640Z,95797.63
2022-10-24T03:38:41.788Z,95789.69
2022-10-24T03:41:09.466Z,95809.75
2022-10-24T03:43:36.286Z,95804.69
2022-10-24T03:46:02.991Z,95806.09
2022-10-24T03:48:29.907Z,95808.19
2022-10-24T03:50:56.580Z,95807.13
2022-10-24T03:53:23.397Z,95813.22
2022-10-24T03:55:50.233Z,95809.78
2022-10-24T03:58:17.586Z,95805.00
2022-10-24T04:00:44.362Z,95804.22
2022-10-24T04:03:11.058Z,95802.09
2022-10-24T04:08:09.776Z,95803.44
2022-10-24T04:10:36.660Z,95793.38
2022-10-24T04:13:03.998Z,95783.34
2022-10-24T04:15:31.294Z,95798.63
2022-10-24T04:17:57.977Z,95797.06
2022-10-24T04:20:24.992Z,95788.13
2022-10-24T04:22:51.712Z,95794.44
2022-10-24T04:25:18.527Z,95795.47
2022-10-24T04:27:45.586Z,95799.19
2022-10-24T04:30:16.455Z,95803.97
2022-10-24T04:32:44.906Z,95804.47
2022-10-24T04:35:13.911Z,95795.47
2022-10-24T04:37:40.840Z,95797.31
2022-10-24T04:40:08.071Z,95808.13
2022-10-24T04:42:34.866Z,95804.97
2022-10-24T04:45:01.784Z,95803.34
2022-10-24T04:47:28.578Z,95801.53
2022-10-24T04:49:55.564Z,95810.53
2022-10-24T04:52:22.317Z,95816.22
2022-10-24T04:54:49.081Z,95814.94
2022-10-24T04:57:15.911Z,95824.75
2022-10-24T04:59:42.656Z,95821.88
2022-10-24T05:02:09.491Z,95821.56
2022-10-24T05:04:36.375Z,95823.06
2022-10-24T05:07:03.091Z,95818.50
2022-10-24T05:09:29.852Z,95797.56
2022-10-24T05:11:56.767Z,95817.72
2022-10-24T05:14:24.272Z,95831.44
2022-10-24T05:16:51.074Z,95825.09
2022-10-24T05:19:18.272Z,95826.69
2022-10-24T05:21:45.213Z,95822.47
2022-10-24T05:24:12.087Z,95824.56
2022-10-24T05:26:39.020Z,95818.75
2022-10-24T05:31:37.682Z,95825.09
2022-10-24T05:34:04.580Z,95829.06
2022-10-24T05:36:31.356Z,95825.59
2022-10-24T05:38:58.126Z,95809.25
2022-10-24T05:41:24.846Z,95833.03
2022-10-24T05:43:51.691Z,95830.91
2022-10-24T05:46:18.389Z,95824.59
2022-10-24T05:48:45.157Z,95829.31
2022-10-24T05:51:13.164Z,95827.22
2022-10-24T05:53:40.149Z,95835.94
2022-10-24T05:56:07.162Z,95841.22
2022-10-24T05:58:34.346Z,95832.50
2022-10-24T06:01:01.247Z,95840.16
2022-10-24T06:03:28.713Z,95851.00
2022-10-24T06:05:55.375Z,95842.78
2022-10-24T06:08:22.119Z,95854.44
2022-10-24T06:10:50.833Z,95856.28
2022-10-24T06:13:18.271Z,95853.63
2022-10-24T06:15:45.839Z,95851.72
2022-10-24T06:18:12.820Z,95857.09
2022-10-24T06:20:39.590Z,95854.69
2022-10-24T06:23:06.283Z,95852.97
2022-10-24T06:25:33.142Z,95856.75
2022-10-24T06:28:00.245Z,95852.06
2022-10-24T06:30:27.801Z,95859.44
2022-10-24T06:32:54.765Z,95869.47
2022-10-24T06:35:21.630Z,95865.28
2022-10-24T06:37:48.709Z,95867.91
2022-10-24T06:40:17.451Z,95864.75
2022-10-24T06:42:44.941Z,95862.63
2022-10-24T06:45:12.308Z,95874.81
2022-10-24T06:47:39.410Z,95880.59
2022-10-24T06:50:06.827Z,95854.69
2022-10-24T06:52:33.636Z,95875.81
2022-10-24T06:55:00.449Z,95877.09
2022-10-24T06:57:27.192Z,95876.34
2022-10-24T06:59:54.026Z,95871.81
2022-10-24T07:02:21.053Z,95881.59
2022-10-24T07:04:47.911Z,95862.47
2022-10-24T07:07:16.225Z,95860.34
2022-10-24T07:09:43.437Z,95848.47
2022-10-24T07:12:10.828Z,95866.97
2022-10-24T07:14:37.683Z,95865.78
2022-10-24T07:17:05.868Z,95863.69
2022-10-24T07:19:36.529Z,95873.97
2022-10-24T07:22:04.393Z,95860.63
2022-10-24T07:24:31.465Z,95857.06
2022-10-24T07:26:58.482Z,95856.03
2022-10-24T07:29:25.848Z,95852.28
2022-10-24T07:31:53.254Z,95856.59
2022-10-24T07:34:20.229Z,95858.66
2022-10-24T07:36:47.092Z,95864.00
2022-10-24T07:39:14.016Z,95846.66
2022-10-24T07:41:41.986Z,95854.88
2022-10-24T07:44:10.370Z,95853.34
2022-10-24T07:46:37.735Z,95859.47
2022-10-24T07:49:04.461Z,95864.50
2022-10-24T07:51:31.869Z,95854.16
2022-10-24T07:53:59.063Z,95850.88
2022-10-24T07:56:26.393Z,95854.44
2022-10-24T07:58:53.240Z,95846.28
2022-10-24T08:01:24.058Z,95850.94
2022-10-24T08:03:51.194Z,95852.44
2022-10-24T08:06:20.288Z,95846.59
2022-10-24T08:08:47.023Z,95837.53
2022-10-24T08:11:16.776Z,95838.78
2022-10-24T08:13:43.731Z,95833.75
2022-10-24T08:16:12.499Z,95843.25
2022-10-24T08:18:40.102Z,95839.78
2022-10-24T08:21:13.704Z,95831.41
2022-10-24T08:23:44.084Z,95825.16
2022-10-24T08:26:15.313Z,95837.56
2022-10-24T08:28:43.720Z,95830.81
2022-10-24T08:31:16.743Z,95819.69
2022-10-24T08:33:44.261Z,95818.75
2022-10-24T08:36:16.967Z,95830.22
2022-10-24T08:38:43.783Z,95818.56
2022-10-24T08:41:27.475Z,95813.25
2022-10-24T08:43:56.882Z,95814.56
2022-10-24T08:46:44.348Z,95805.19
2022-10-24T08:49:23.344Z,95806.22
2022-10-24T08:52:31.235Z,95795.41
2022-10-24T08:55:04.809Z,95795.44
2022-10-24T08:57:34.924Z,95791.31
2022-10-24T09:00:16.203Z,95787.28
2022-10-24T09:02:46.152Z,95792.06
2022-10-24T09:05:28.311Z,95784.59
2022-10-24T09:08:01.746Z,95780.28
2022-10-24T09:10:49.089Z,95774.88
2022-10-24T09:13:17.432Z,95777.97
2022-10-24T09:15:46.153Z,95777.94
2022-10-24T09:18:25.320Z,95775.66
2022-10-24T09:20:53.900Z,95764.94
2022-10-24T09:23:23.176Z,95767.94
2022-10-24T09:25:53.224Z,95767.00
2022-10-24T09:28:20.747Z,95761.38
2022-10-24T09:30:48.520Z,95764.44
2022-10-24T09:33:30.741Z,95768.31
2022-10-24T09:36:00.838Z,95759.22
2022-10-24T09:38:38.516Z,95756.41
2022-10-24T09:41:15.551Z,95753.81
2022-10-24T09:43:46.933Z,95752.56
2022-10-24T09:46:16.529Z,95748.50
2022-10-24T09:48:54.394Z,95746.84
2022-10-24T09:51:26.454Z,95750.44
2022-10-24T09:54:21.090Z,95744.66
2022-10-24T09:56:59.077Z,95749.13
2022-10-24T09:59:58.854Z,95736.59
2022-10-24T10:02:36.576Z,95748.94
2022-10-24T10:05:03.484Z,95735.13
2022-10-24T10:07:34.766Z,95731.34
2022-10-24T10:10:06.918Z,95723.88
2022-10-24T10:12:37.949Z,95721.91
2022-10-24T10:15:19.017Z,95719.16
2022-10-24T10:17:51.878Z,95717.22
2022-10-24T10:20:40.560Z,95717.44
2022-10-24T10:23:33.722Z,95710.00
2022-10-24T10:26:11.157Z,95712.31
2022-10-24T10:28:56.900Z,95707.28
2022-10-24T10:31:29.055Z,95710.00
2022-10-24T10:34:07.294Z,95709.41
2022-10-24T10:36:39.502Z,95691.56
2022-10-24T10:39:24.537Z,95693.88
2022-10-24T10:41:51.411Z,95682.88
2022-10-24T10:44:35.366Z,95684.47
2022-10-24T10:47:27.619Z,95680.66
2022-10-24T10:49:58.404Z,95680.53
2022-10-24T10:52:31.862Z,95669.00
2022-10-24T10:55:37.152Z,95673.00
2022-10-24T10:58:13.302Z,95665.72
2022-10-24T11:01:13.908Z,95653.84
2022-10-24T11:03:43.821Z,95664.63
2022-10-24T11:06:16.239Z,95658.34
2022-10-24T11:09:20.591Z,95654.06
2022-10-24T11:11:55.159Z,95650.09
2022-10-24T11:14:30.835Z,95646.88
2022-10-24T11:17:27.164Z,95642.09
2022-10-24T11:20:21.901Z,95637.28
2022-10-24T11:23:01.123Z,95633.78
2022-10-24T11:25:30.927Z,95634.19
2022-10-24T11:28:06.328Z,95630.72
2022-10-24T11:30:45.265Z,95628.63
2022-10-24T11:33:18.251Z,95625.41
2022-10-24T11:36:16.479Z,95619.63
2022-10-24T11:38:54.042Z,95612.75
2022-10-24T11:41:51.533Z,95604.56
2022-10-24T11:44:40.177Z,95600.72
2022-10-24T11:47:25.009Z,95597.06
2022-10-24T11:50:20.625Z,95596.72
2022-10-24T11:52:58.863Z,95597.22
2022-10-24T11:55:38.979Z,95585.25
2022-10-24T11:58:27.887Z,95588.03
2022-10-24T12:01:12.969Z,95581.44
2022-10-24T12:04:10.518Z,95582.81
2022-10-24T12:07:14.327Z,95564.44
2022-10-24T12:10:13.348Z,95570.94
2022-10-24T12:13:10.396Z,95567.59
2022-10-24T12:15:40.496Z,95567.91
2022-10-24T12:18:43.404Z,95576.38
2022-10-24T12:21:14.679Z,95560.09
2022-10-24T12:23:42.896Z,95561.78
2022-10-24T12:26:25.161Z,95550.03
2022-10-24T12:28:59.614Z,95551.13
2022-10-24T12:31:29.469Z,95549.72
2022-10-24T12:34:18.967Z,95547.16
2022-10-24T12:37:12.284Z,95536.28
2022-10-24T12:39:47.375Z,95531.34
2022-10-24T12:42:20.462Z,95541.44
2022-10-24T12:44:50.815Z,95540.28
2022-10-24T12:47:40.320Z,95537.16
2022-10-24T12:50:22.247Z,95530.44
2022-10-24T12:53:01.841Z,95531.25
2022-10-24T12:55:39.738Z,95535.03
2022-10-24T12:58:35.523Z,95536.47
2022-10-24T13:01:25.160Z,95533.59
2022-10-24T13:03:54.848Z,95523.50
2022-10-24T13:06:57.319Z,95524.28
2022-10-24T13:09:32.927Z,95518.09
2022-10-24T13:12:30.599Z,95522.25
2022-10-24T13:15:17.162Z,95523.13
2022-10-24T13:17:49.890Z,95523.56
2022-10-24T13:20:23.700Z,95521.22
2022-10-24T13:22:51.404Z,95510.34
2022-10-24T13:25:33.761Z,95508.69
2022-10-24T13:28:22.482Z,95518.16
2022-10-24T13:30:59.188Z,95517.09
2022-10-24T13:33:36.501Z,95511.09
2022-10-24T13:36:28.023Z,95515.69
2022-10-24T13:38:55.137Z,95523.41
2022-10-24T13:41:44.943Z,95517.44
2022-10-24T13:44:37.267Z,95508.81
2022-10-24T13:47:28.717Z,95509.09
2022-10-24T13:50:17.035Z,95515.97
2022-10-24T13:52:49.569Z,95510.84
2022-10-24T13:55:24.033Z,95504.03
2022-10-24T13:58:06.376Z,95505.66
2022-10-24T14:00:37.822Z,95501.38
2022-10-24T14:03:11.387Z,95505.75
2022-10-24T14:05:45.714Z,95501.69
2022-10-24T14:08:21.218Z,95505.16
2022-10-24T14:10:49.292Z,95496.78
2022-10-24T14:13:18.595Z,95499.34
2022-10-24T14:15:54.941Z,95494.00
2022-10-24T14:18:22.997Z,95496.13
2022-10-24T14:21:02.007Z,95496.53
2022-10-24T14:23:35.404Z,95500.94
2022-10-24T14:26:08.681Z,95496.41
2022-10-24T14:28:50.806Z,95491.53
2022-10-24T14:31:31.060Z,95501.44
2022-10-24T14:33:58.581Z,95493.53
2022-10-24T14:36:28.498Z,95503.22
2022-10-24T14:38:57.676Z,95486.38
2022-10-24T14:41:31.625Z,95503.13
2022-10-24T14:43:59.764Z,95488.03
2022-10-24T14:46:34.536Z,95494.50
2022-10-24T14:49:20.423Z,95488.91
2022-10-24T14:54:32.362Z,95494.91
2022-10-24T14:57:00.845Z,95494.91
2022-10-24T14:59:36.841Z,95492.59
2022-10-24T15:02:21.156Z,95498.56
2022-10-24T15:04:48.890Z,95492.03
2022-10-24T15:07:29.236Z,95491.78
2022-10-24T15:10:20.025Z,95492.53
2022-10-24T15:12:57.386Z,95486.91
2022-10-24T15:15:31.834Z,95488.72
2022-10-24T15:18:28.988Z,95492.34
2022-10-24T15:21:06.315Z,95475.88
2022-10-24T15:23:36.733Z,95486.81
2022-10-24T15:26:10.419Z,95487.28
2022-10-24T15:28:49.149Z,95488.81
2022-10-24T15:31:19.080Z,95492.91
2022-10-24T15:33:46.841Z,95496.59
2022-10-24T15:36:23.027Z,95491.19
2022-10-24T15:39:28.285Z,95502.78
2022-10-24T15:41:55.465Z,95501.81
2022-10-24T15:44:31.602Z,95499.50
2022-10-24T15:46:58.623Z,95486.28
2022-10-24T15:49:25.294Z,95503.78
2022-10-24T15:51:52.165Z,95500.34
2022-10-24T15:54:20.938Z,95505.44
2022-10-24T15:56:48.999Z,95507.31
2022-10-24T15:59:15.717Z,95503.75
2022-10-24T16:01:47.872Z,95502.53
2022-10-24T16:04:15.613Z,95500.97
2022-10-24T16:06:42.694Z,95503.38
2022-10-24T16:09:19.042Z,95509.50
2022-10-24T16:11:46.442Z,95499.59
2022-10-24T16:14:18.932Z,95514.06
2022-10-24T16:16:45.747Z,95503.25
2022-10-24T16:19:13.033Z,95523.13
2022-10-24T16:21:41.328Z,95515.22
2022-10-24T16:24:08.873Z,95504.47
2022-10-24T16:26:37.014Z,95518.66
2022-10-24T16:29:04.647Z,95520.78
2022-10-24T16:31:32.584Z,95516.84
2022-10-24T16:33:59.939Z,95524.13
2022-10-24T16:36:27.307Z,95516.13
2022-10-24T16:38:54.566Z,95514.75
2022-10-24T16:41:24.251Z,95525.47
2022-10-24T16:43:54.876Z,95523.31
2022-10-24T16:46:22.276Z,95522.72
2022-10-24T16:48:50.083Z,95539.06
2022-10-24T16:51:25.275Z,95523.53
2022-10-24T16:53:52.178Z,95534.22
2022-10-24T16:56:20.054Z,95534.44
2022-10-24T16:58:46.767Z,95529.25
2022-10-24T17:01:16.469Z,95531.88
2022-10-24T17:03:45.060Z,95521.44
2022-10-24T17:06:12.206Z,95523.19
2022-10-24T17:08:39.066Z,95538.28
2022-10-24T17:11:20.218Z,95537.38
2022-10-24T17:13:53.305Z,95530.44
2022-10-24T17:16:20.891Z,95532.69
2022-10-24T17:18:59.260Z,95530.31
2022-10-24T17:21:33.420Z,95534.94
2022-10-24T17:24:00.415Z,95538.75
2022-10-24T17:26:29.355Z,95538.88
2022-10-24T17:28:56.324Z,95542.66
2022-10-24T17:31:23.391Z,95544.22
2022-10-24T17:33:50.365Z,95541.06
2022-10-24T17:36:25.603Z,95536.63
2022-10-24T17:38:58.779Z,95541.22
2022-10-24T17:41:33.101Z,95540.25
2022-10-24T17:44:01.181Z,95542.78
2022-10-24T17:46:28.029Z,95555.94
2022-10-24T17:48:56.936Z,95544.47
2022-10-24T17:51:26.406Z,95553.06
2022-10-24T17:53:53.698Z,95550.97
2022-10-24T17:56:23.217Z,95551.09
2022-10-24T17:58:52.603Z,95545.06
2022-10-24T18:01:20.621Z,95544.34
2022-10-24T18:03:47.518Z,95546.53
2022-10-24T18:06:15.291Z,95534.44
2022-10-24T18:08:42.184Z,95548.47
2022-10-24T18:11:09.632Z,95539.78
2022-10-24T18:13:38.251Z,95546.03
2022-10-24T18:16:13.485Z,95538.22
2022-10-24T18:18:41.436Z,95540.16
2022-10-24T18:23:48.959Z,95535.03
2022-10-24T18:26:19.433Z,95533.38
2022-10-24T18:28:48.568Z,95541.00
2022-10-24T18:31:20.768Z,95536.13
2022-10-24T18:33:48.821Z,95539.03
2022-10-24T18:36:24.710Z,95538.84
2022-10-24T18:38:54.544Z,95533.59
2022-10-24T18:41:33.738Z,95530.06
2022-10-24T18:44:09.173Z,95542.13
2022-10-24T18:46:36.510Z,95537.41
2022-10-24T18:49:03.406Z,95537.41
2022-10-24T18:51:35.986Z,95537.56
2022-10-24T18:54:10.257Z,95528.13
2022-10-24T18:56:38.703Z,95533.53
2022-10-24T18:59:17.223Z,95535.97
2022-10-24T19:02:31.911Z,95537.09
2022-10-24T19:05:14.513Z,95544.03
2022-10-24T19:07:42.214Z,95537.50
2022-10-24T19:10:16.501Z,95536.84
2022-10-24T19:12:43.520Z,95533.81
2022-10-24T19:15:11.286Z,95535.47
2022-10-24T19:17:38.276Z,95538.53
2022-10-24T19:20:06.075Z,95537.47
2022-10-24T19:22:32.741Z,95540.53
2022-10-24T19:24:59.640Z,95536.78
2022-10-24T19:27:26.641Z,95537.47
2022-10-24T19:29:54.551Z,95538.09
2022-10-24T19:32:21.355Z,95547.34
2022-10-24T19:34:48.120Z,95535.47
2022-10-24T19:37:15.844Z,95547.81
2022-10-24T19:39:42.746Z,95548.31
2022-10-24T19:42:09.497Z,95543.78
2022-10-24T19:44:36.357Z,95548.59
2022-10-24T19:47:03.266Z,95556.59
2022-10-24T19:49:29.972Z,95549.22
2022-10-24T19:51:57.937Z,95554.75
2022-10-24T19:54:24.699Z,95548.63
2022-10-24T19:56:54.884Z,95555.97
2022-10-24T19:59:21.844Z,95551.84
2022-10-24T20:01:48.677Z,95557.25
2022-10-24T20:04:15.827Z,95551.63
2022-10-24T20:06:42.556Z,95544.38
2022-10-24T20:09:10.940Z,95548.56
2022-10-24T20:11:37.813Z,95551.38
2022-10-24T20:14:04.721Z,95550.00
2022-10-24T20:16:32.235Z,95550.63
2022-10-24T20:19:00.108Z,95552.75
2022-10-24T20:21:26.957Z,95542.34
2022-10-24T20:23:53.684Z,95547.06
2022-10-24T20:26:23.122Z,95551.38
2022-10-24T20:28:52.171Z,95554.03
2022-10-24T20:31:26.849Z,95548.47
2022-10-24T20:33:53.618Z,95543.91
2022-10-24T20:36:23.196Z,95548.84
2022-10-24T20:38:49.972Z,95557.09
2022-10-24T20:41:16.946Z,95560.22
2022-10-24T20:43:43.796Z,95555.34
2022-10-24T20:46:11.084Z,95569.16
2022-10-24T20:48:38.042Z,95566.56
2022-10-24T20:51:13.327Z,95573.19
2022-10-24T20:53:41.340Z,95567.53
2022-10-24T20:56:13.724Z,95568.84
2022-10-24T20:58:42.653Z,95573.47
2022-10-24T21:01:11.853Z,95565.56
2022-10-24T21:03:39.197Z,95557.19
2022-10-24T21:06:13.925Z,95552.69
2022-10-24T21:08:40.796Z,95558.91
2022-10-24T21:11:07.884Z,95557.97
2022-10-24T21:13:34.600Z,95559.25
2022-10-24T21:16:02.216Z,95565.25
2022-10-24T21:18:28.896Z,95565.34
2022-10-24T21:20:55.824Z,95571.16
2022-10-24T21:23:22.592Z,95565.34
2022-10-24T21:25:49.434Z,95565.22
2022-10-24T21:28:16.232Z,95555.19
2022-10-24T21:30:42.944Z,95555.91
2022-10-24T21:33:10.714Z,95558.69
2022-10-24T21:35:40.508Z,95555.31
2022-10-24T21:38:07.243Z,95557.31
2022-10-24T21:40:34.124Z,95566.16
2022-10-24T21:43:02.108Z,95569.47
2022-10-24T21:45:30.546Z,95570.97
2022-10-24T21:47:57.478Z,95575.38
2022-10-24T21:50:24.276Z,95576.78
2022-10-24T21:52:51.074Z,95567.72
2022-10-24T21:55:17.751Z,95564.50
2022-10-24T21:57:44.564Z,95566.28
2022-10-24T22:00:12.037Z,95563.63
2022-10-24T22:02:39.065Z,95562.19
2022-10-24T22:05:06.159Z,95557.38
2022-10-24T22:07:32.963Z,95566.13
2022-10-24T22:09:59.751Z,95562.59
2022-10-24T22:12:26.720Z,95561.47
2022-10-24T22:14:53.539Z,95567.44
2022-10-24T22:17:20.306Z,95562.47
2022-10-24T22:19:47.088Z,95567.13
2022-10-24T22:22:15.578Z,95573.19
2022-10-24T22:24:42.361Z,95556.09
2022-10-24T22:27:09.021Z,95552.63
2022-10-24T22:29:35.976Z,95556.34
2022-10-24T22:32:02.889Z,95561.56
2022-10-24T22:34:29.825Z,95561.63
2022-10-24T22:37:23.417Z,95558.28
2022-10-24T22:39:50.606Z,95559.25
2022-10-24T22:42:20.150Z,95563.00
2022-10-24T22:44:47.830Z,95551.06
2022-10-24T22:47:37.396Z,95562.38
2022-10-24T22:50:36.370Z,95571.59
2022-10-24T22:53:03.447Z,95563.50
2022-10-24T22:55:38.886Z,95565.84
2022-10-24T22:58:05.875Z,95563.28
2022-10-24T23:00:32.869Z,95562.97
2022-10-24T23:03:37.783Z,95562.44
2022-10-24T23:06:21.061Z,95557.56
2022-10-24T23:08:48.133Z,95560.66
2022-10-24T23:11:15.233Z,95560.34
2022-10-24T23:13:42.757Z,95556.19
2022-10-24T23:16:27.598Z,95563.94
2022-10-24T23:18:54.795Z,95563.38
2022-10-24T23:21:31.729Z,95572.78
2022-10-24T23:23:58.842Z,95570.56
2022-10-24T23:26:45.590Z,95562.41
2022-10-24T23:29:27.201Z,95568.06
2022-10-24T23:31:54.388Z,95555.28
2022-10-24T23:34:21.633Z,95568.09
2022-10-24T23:36:49.972Z,95567.53
2022-10-24T23:39:17.045Z,95573.97
2022-10-24T23:41:44.318Z,95574.22
2022-10-24T23:44:11.453Z,95571.56
2022-10-24T23:46:44.632Z,95572.84
2022-10-24T23:49:24.821Z,95567.31
2022-10-24T23:52:39.477Z,95570.94
2022-10-24T23:55:07.042Z,95567.97
2022-10-24T23:57:34.188Z,95567.28
